createdAt,value
2022-11-15T00:01:35.221Z,95196.88
2022-11-15T00:04:20.706Z,95189.94
2022-11-15T00:07:06.172Z,95189.63
2022-11-15T00:09:51.692Z,95188.53
2022-11-15T00:12:37.265Z,95186.66
2022-11-15T00:15:23.849Z,95185.06
2022-11-15T00:18:15.799Z,95175.69
2022-11-15T00:21:07.755Z,95175.97
2022-11-15T00:23:53.379Z,95180.50
2022-11-15T00:26:38.822Z,95179.16
2022-11-15T00:29:24.427Z,95169.47
2022-11-15T00:32:09.915Z,95179.06
2022-11-15T00:34:55.631Z,95175.03
2022-11-15T00:37:41.113Z,95173.94
2022-11-15T00:40:26.884Z,95172.84
2022-11-15T00:43:12.432Z,95169.91
2022-11-15T00:45:58.219Z,95170.63
2022-11-15T00:48:43.570Z,95169.81
2022-11-15T00:51:29.849Z,95168.25
2022-11-15T00:54:15.260Z,95165.59
2022-11-15T00:57:00.795Z,95161.09
2022-11-15T00:59:46.293Z,95165.91
2022-11-15T01:02:31.718Z,95164.78
2022-11-15T01:05:17.560Z,95154.38
2022-11-15T01:08:03.092Z,95161.56
2022-11-15T01:10:48.569Z,95159.66
2022-11-15T01:13:35.940Z,95154.28
2022-11-15T01:16:21.449Z,95153.25
2022-11-15T01:19:07.326Z,95158.06
2022-11-15T01:21:53.156Z,95157.25
2022-11-15T01:24:38.927Z,95162.31
2022-11-15T01:27:24.828Z,95165.47
2022-11-15T01:30:10.509Z,95156.38
2022-11-15T01:32:56.281Z,95157.00
2022-11-15T01:35:41.717Z,95154.84
2022-11-15T01:38:27.385Z,95152.59
2022-11-15T01:41:25.306Z,95144.56
2022-11-15T01:44:49.006Z,95146.41
2022-11-15T01:47:37.568Z,95148.25
2022-11-15T01:50:29.819Z,95146.00
2022-11-15T01:53:15.611Z,95142.75
2022-11-15T01:56:05.492Z,95145.94
2022-11-15T01:58:52.701Z,95148.31
2022-11-15T02:01:39.510Z,95148.06
2022-11-15T02:04:30.572Z,95140.69
2022-11-15T02:07:19.507Z,95145.66
2022-11-15T02:10:11.395Z,95145.78
2022-11-15T02:12:58.028Z,95137.22
2022-11-15T02:16:02.961Z,95143.28
2022-11-15T02:19:24.550Z,95139.53
2022-11-15T02:22:58.149Z,95140.31
2022-11-15T02:26:13.105Z,95130.63
2022-11-15T02:29:10.070Z,95137.47
2022-11-15T02:32:10.645Z,95124.59
2022-11-15T02:35:26.703Z,95132.06
2022-11-15T02:38:44.018Z,95128.03
2022-11-15T02:41:41.173Z,95127.16
2022-11-15T02:44:33.973Z,95133.75
2022-11-15T02:47:22.376Z,95130.28
2022-11-15T02:50:14.042Z,95130.03
2022-11-15T02:52:59.753Z,95131.34
2022-11-15T02:55:49.205Z,95131.84
2022-11-15T02:59:21.203Z,95139.28
2022-11-15T03:02:20.180Z,95141.41
2022-11-15T03:06:17.298Z,95142.22
2022-11-15T03:09:30.131Z,95133.22
2022-11-15T03:12:34.986Z,95138.06
2022-11-15T03:15:26.700Z,95127.41
2022-11-15T03:18:22.607Z,95129.78
2022-11-15T03:21:13.202Z,95129.22
2022-11-15T03:24:02.634Z,95128.72
2022-11-15T03:26:50.621Z,95128.47
2022-11-15T03:29:42.945Z,95121.28
2022-11-15T03:32:36.053Z,95128.50
2022-11-15T03:35:28.202Z,95119.78
2022-11-15T03:38:26.041Z,95115.00
2022-11-15T03:41:25.209Z,95111.03
2022-11-15T03:45:12.295Z,95113.72
2022-11-15T03:48:10.559Z,95106.56
2022-11-15T03:50:56.763Z,95113.81
2022-11-15T03:53:42.619Z,95108.25
2022-11-15T03:56:28.150Z,95103.44
2022-11-15T03:59:13.609Z,95105.06
2022-11-15T04:01:59.280Z,95106.16
2022-11-15T04:04:44.551Z,95093.09
2022-11-15T04:07:30.531Z,95098.25
2022-11-15T04:10:16.972Z,95090.28
2022-11-15T04:13:03.802Z,95091.38
2022-11-15T04:15:49.451Z,95088.72
2022-11-15T04:18:35.398Z,95098.13
2022-11-15T04:21:39.628Z,95097.91
2022-11-15T04:24:25.236Z,95086.72
2022-11-15T04:27:11.365Z,95090.44
2022-11-15T04:29:58.837Z,95082.47
2022-11-15T04:32:44.731Z,95087.78
2022-11-15T04:35:30.170Z,95086.19
2022-11-15T04:38:15.988Z,95087.50
2022-11-15T04:41:02.127Z,95089.63
2022-11-15T04:43:48.049Z,95087.38
2022-11-15T04:46:33.844Z,95091.59
2022-11-15T04:49:19.288Z,95090.72
2022-11-15T04:52:05.686Z,95094.25
2022-11-15T04:54:51.267Z,95092.84
2022-11-15T04:57:37.056Z,95093.97
2022-11-15T05:00:22.535Z,95100.38
2022-11-15T05:03:26.771Z,95101.63
2022-11-15T05:06:12.426Z,95092.28
2022-11-15T05:08:58.684Z,95101.63
2022-11-15T05:11:44.671Z,95105.63
2022-11-15T05:14:30.654Z,95092.31
2022-11-15T05:17:16.308Z,95090.72
2022-11-15T05:20:01.857Z,95085.16
2022-11-15T05:22:47.502Z,95086.50
2022-11-15T05:25:33.114Z,95085.47
2022-11-15T05:28:18.715Z,95079.56
2022-11-15T05:31:13.360Z,95087.84
2022-11-15T05:34:01.298Z,95084.91
2022-11-15T05:36:47.395Z,95082.78
2022-11-15T05:39:33.010Z,95079.88
2022-11-15T05:42:18.561Z,95080.16
2022-11-15T05:45:07.445Z,95091.09
2022-11-15T05:47:55.953Z,95089.78
2022-11-15T05:50:46.329Z,95099.41
2022-11-15T05:53:32.988Z,95101.53
2022-11-15T05:56:18.763Z,95101.06
2022-11-15T05:59:05.385Z,95106.69
2022-11-15T06:01:51.344Z,95100.81
2022-11-15T06:04:37.091Z,95105.41
2022-11-15T06:07:22.666Z,95108.56
2022-11-15T06:10:09.787Z,95105.53
2022-11-15T06:13:03.800Z,95105.25
2022-11-15T06:15:49.369Z,95108.19
2022-11-15T06:18:35.699Z,95105.25
2022-11-15T06:21:21.481Z,95100.44
2022-11-15T06:24:07.836Z,95103.13
2022-11-15T06:26:53.684Z,95102.06
2022-11-15T06:29:39.935Z,95094.13
2022-11-15T06:32:25.785Z,95101.09
2022-11-15T06:35:11.569Z,95092.03
2022-11-15T06:38:02.663Z,95099.78
2022-11-15T06:40:48.146Z,95091.84
2022-11-15T06:43:34.227Z,95098.53
2022-11-15T06:46:19.825Z,95101.78
2022-11-15T06:49:09.541Z,95104.53
2022-11-15T06:51:55.536Z,95094.13
2022-11-15T06:54:41.342Z,95094.16
2022-11-15T06:57:26.604Z,95092.34
2022-11-15T07:00:13.412Z,95086.47
2022-11-15T07:03:01.381Z,95085.41
2022-11-15T07:06:01.415Z,95090.25
2022-11-15T07:08:51.107Z,95085.44
2022-11-15T07:11:36.802Z,95078.25
2022-11-15T07:14:22.527Z,95083.63
2022-11-15T07:17:08.299Z,95087.66
2022-11-15T07:19:53.897Z,95089.25
2022-11-15T07:22:40.087Z,95083.66
2022-11-15T07:25:26.338Z,95095.13
2022-11-15T07:28:12.521Z,95093.25
2022-11-15T07:30:58.681Z,95088.16
2022-11-15T07:33:46.451Z,95090.84
2022-11-15T07:36:32.929Z,95092.97
2022-11-15T07:39:18.500Z,95088.69
2022-11-15T07:42:22.711Z,95088.44
2022-11-15T07:45:08.962Z,95088.44
2022-11-15T07:47:55.013Z,95093.25
2022-11-15T07:50:44.256Z,95095.16
2022-11-15T07:53:30.232Z,95081.28
2022-11-15T07:56:16.321Z,95087.19
2022-11-15T07:59:02.253Z,95088.25
2022-11-15T08:01:48.062Z,95094.69
2022-11-15T08:04:33.823Z,95083.19
2022-11-15T08:07:19.703Z,95083.47
2022-11-15T08:10:08.317Z,95077.06
2022-11-15T08:13:09.584Z,95079.72
2022-11-15T08:16:06.631Z,95082.69
2022-11-15T08:18:52.553Z,95074.41
2022-11-15T08:21:38.566Z,95066.63
2022-11-15T08:24:24.070Z,95076.00
2022-11-15T08:27:16.086Z,95066.09
2022-11-15T08:30:01.867Z,95069.03
2022-11-15T08:32:47.667Z,95067.19
2022-11-15T08:35:33.133Z,95062.09
2022-11-15T08:38:18.558Z,95065.31
2022-11-15T08:41:06.199Z,95062.63
2022-11-15T08:43:51.574Z,95062.09
2022-11-15T08:46:37.013Z,95057.03
2022-11-15T08:49:22.569Z,95056.22
2022-11-15T08:52:09.624Z,95054.59
2022-11-15T08:54:55.255Z,95049.78
2022-11-15T08:57:41.049Z,95050.28
2022-11-15T09:00:26.556Z,95042.28
2022-11-15T09:03:11.952Z,95037.97
2022-11-15T09:05:59.112Z,95041.72
2022-11-15T09:08:48.630Z,95031.25
2022-11-15T09:11:34.466Z,95028.84
2022-11-15T09:14:20.053Z,95027.25
2022-11-15T09:17:10.243Z,95026.44
2022-11-15T09:19:56.482Z,95027.72
2022-11-15T09:22:41.875Z,95018.34
2022-11-15T09:25:27.981Z,95007.34
2022-11-15T09:28:13.532Z,95005.94
2022-11-15T09:31:01.056Z,95001.34
2022-11-15T09:33:47.446Z,94996.50
2022-11-15T09:36:33.388Z,94995.44
2022-11-15T09:39:19.022Z,94991.19
2022-11-15T09:42:45.477Z,94988.78
2022-11-15T09:46:06.757Z,94979.94
2022-11-15T09:48:58.808Z,94984.78
2022-11-15T09:51:51.365Z,94979.94
2022-11-15T09:54:53.295Z,94974.59
2022-11-15T09:57:33.791Z,94972.47
2022-11-15T10:00:47.085Z,94966.56
2022-11-15T10:03:24.728Z,94960.28
2022-11-15T10:05:55.453Z,94956.69
2022-11-15T10:08:53.257Z,94955.53
2022-11-15T10:11:39.740Z,94956.84
2022-11-15T10:14:17.493Z,94954.09
2022-11-15T10:17:24.222Z,94941.72
2022-11-15T10:20:06.239Z,94944.34
2022-11-15T10:22:51.252Z,94947.72
2022-11-15T10:25:32.217Z,94945.00
2022-11-15T10:28:21.533Z,94940.94
2022-11-15T10:30:51.259Z,94925.59
2022-11-15T10:33:39.915Z,94930.06
2022-11-15T10:36:29.842Z,94930.72
2022-11-15T10:38:58.528Z,94904.09
2022-11-15T10:41:36.482Z,94903.41
2022-11-15T10:44:43.512Z,94897.84
2022-11-15T10:47:28.985Z,94899.41
2022-11-15T10:50:05.711Z,94890.28
2022-11-15T10:52:35.674Z,94889.59
2022-11-15T10:55:22.950Z,94886.13
2022-11-15T10:58:30.647Z,94886.88
2022-11-15T11:01:17.601Z,94875.97
2022-11-15T11:03:58.315Z,94871.72
2022-11-15T11:06:25.634Z,94865.16
2022-11-15T11:09:04.303Z,94861.94
2022-11-15T11:11:51.587Z,94862.13
2022-11-15T11:14:28.547Z,94853.75
2022-11-15T11:17:19.481Z,94854.91
2022-11-15T11:19:57.042Z,94845.66
2022-11-15T11:22:52.566Z,94844.75
2022-11-15T11:25:29.936Z,94844.38
2022-11-15T11:28:31.985Z,94830.44
2022-11-15T11:38:10.235Z,94809.03
2022-11-15T11:41:04.189Z,94801.97
2022-11-15T11:44:06.892Z,94794.53
2022-11-15T11:47:00.475Z,94786.16
2022-11-15T11:52:50.707Z,94789.72
2022-11-15T11:55:30.327Z,94778.44
2022-11-15T12:01:45.363Z,94780.00
2022-11-15T12:04:41.877Z,94774.75
2022-11-15T12:07:25.686Z,94762.19
2022-11-15T12:10:00.602Z,94759.47
2022-11-15T12:12:54.385Z,94747.53
2022-11-15T12:15:27.278Z,94749.84
2022-11-15T12:17:56.795Z,94748.91
2022-11-15T12:20:31.436Z,94742.41
2022-11-15T12:23:05.083Z,94744.47
2022-11-15T12:26:27.757Z,94737.34
2022-11-15T12:29:25.070Z,94732.25
2022-11-15T12:31:57.657Z,94734.66
2022-11-15T12:34:38.215Z,94727.78
2022-11-15T12:37:36.104Z,94732.84
2022-11-15T12:40:32.797Z,94730.50
2022-11-15T12:43:38.409Z,94719.66
2022-11-15T12:46:12.637Z,94723.53
2022-11-15T12:49:09.231Z,94716.38
2022-11-15T12:52:07.232Z,94712.84
2022-11-15T12:55:04.519Z,94708.69
2022-11-15T12:57:37.402Z,94706.16
2022-11-15T13:00:52.133Z,94708.56
2022-11-15T13:03:27.885Z,94702.66
2022-11-15T13:05:59.389Z,94700.91
2022-11-15T13:08:45.068Z,94692.00
2022-11-15T13:11:44.458Z,94695.31
2022-11-15T13:14:50.248Z,94694.34
2022-11-15T13:18:02.610Z,94674.53
2022-11-15T13:20:33.753Z,94685.03
2022-11-15T13:23:05.253Z,94678.03
2022-11-15T13:25:58.564Z,94679.13
2022-11-15T13:28:37.915Z,94679.13
2022-11-15T13:31:43.383Z,94675.16
2022-11-15T13:34:54.985Z,94670.59
2022-11-15T13:37:32.231Z,94671.25
2022-11-15T13:40:21.123Z,94678.06
2022-11-15T13:42:48.366Z,94664.34
2022-11-15T13:45:18.885Z,94665.25
2022-11-15T13:47:46.044Z,94665.69
2022-11-15T13:50:14.673Z,94668.13
2022-11-15T13:52:46.914Z,94666.00
2022-11-15T13:55:22.847Z,94666.84
2022-11-15T13:57:54.095Z,94669.31
2022-11-15T14:00:47.624Z,94669.97
2022-11-15T14:03:34.215Z,94669.66
2022-11-15T14:06:16.435Z,94661.25
2022-11-15T14:09:31.347Z,94669.84
2022-11-15T14:11:58.815Z,94655.78
2022-11-15T14:14:28.219Z,94654.22
2022-11-15T14:17:00.486Z,94656.50
2022-11-15T14:19:39.059Z,94660.72
2022-11-15T14:22:32.155Z,94659.13
2022-11-15T14:25:23.630Z,94657.03
2022-11-15T14:28:17.399Z,94657.13
2022-11-15T14:30:51.346Z,94660.69
2022-11-15T14:33:32.483Z,94658.91
2022-11-15T14:36:19.885Z,94655.63
2022-11-15T14:38:47.789Z,94665.91
2022-11-15T14:41:27.439Z,94659.88
2022-11-15T14:43:54.673Z,94670.25
2022-11-15T14:46:21.669Z,94670.13
2022-11-15T14:48:48.830Z,94666.00
2022-11-15T14:51:18.526Z,94669.94
2022-11-15T14:53:46.898Z,94665.69
2022-11-15T14:56:15.181Z,94659.22
2022-11-15T14:58:42.345Z,94662.69
2022-11-15T15:01:19.256Z,94665.03
2022-11-15T15:03:46.789Z,94665.84
2022-11-15T15:06:17.982Z,94658.78
2022-11-15T15:08:47.239Z,94651.16
2022-11-15T15:11:22.919Z,94651.88
2022-11-15T15:13:50.093Z,94647.34
2022-11-15T15:16:17.203Z,94648.56
2022-11-15T15:18:44.759Z,94645.97
2022-11-15T15:21:26.192Z,94651.94
2022-11-15T15:23:55.186Z,94647.13
2022-11-15T15:26:24.006Z,94638.38
2022-11-15T15:28:53.115Z,94633.09
2022-11-15T15:31:20.348Z,94628.97
2022-11-15T15:33:47.608Z,94630.53
2022-11-15T15:36:18.253Z,94633.38
2022-11-15T15:38:47.945Z,94638.84
2022-11-15T15:41:16.906Z,94635.50
2022-11-15T15:43:44.385Z,94634.50
2022-11-15T15:46:21.189Z,94633.41
2022-11-15T15:48:48.480Z,94640.66
2022-11-15T15:51:20.160Z,94634.72
2022-11-15T15:53:49.499Z,94634.41
2022-11-15T15:56:16.623Z,94637.34
2022-11-15T15:58:43.695Z,94639.00
2022-11-15T16:01:10.906Z,94639.59
2022-11-15T16:03:38.290Z,94641.03
2022-11-15T16:06:06.370Z,94642.34
2022-11-15T16:08:47.439Z,94637.28
2022-11-15T16:11:20.542Z,94640.97
2022-11-15T16:13:47.453Z,94643.38
2022-11-15T16:16:15.115Z,94642.06
2022-11-15T16:18:42.918Z,94642.22
2022-11-15T16:21:10.074Z,94651.75
2022-11-15T16:23:37.188Z,94642.78
2022-11-15T16:26:19.177Z,94647.09
2022-11-15T16:28:46.154Z,94647.09
2022-11-15T16:31:13.849Z,94655.22
2022-11-15T16:33:41.412Z,94644.81
2022-11-15T16:36:30.262Z,94645.97
2022-11-15T16:38:58.807Z,94638.25
2022-11-15T16:41:26.531Z,94638.31
2022-11-15T16:43:53.757Z,94628.16
2022-11-15T16:46:30.247Z,94621.78
2022-11-15T16:48:57.825Z,94621.81
2022-11-15T16:51:25.209Z,94612.75
2022-11-15T16:53:52.387Z,94618.13
2022-11-15T16:56:30.599Z,94625.88
2022-11-15T16:58:59.250Z,94619.16
2022-11-15T17:01:29.215Z,94631.16
2022-11-15T17:03:56.500Z,94622.34
2022-11-15T17:06:24.944Z,94617.25
2022-11-15T17:08:52.341Z,94613.00
2022-11-15T17:11:22.020Z,94601.47
2022-11-15T17:13:49.888Z,94608.94
2022-11-15T17:16:18.547Z,94606.84
2022-11-15T17:18:45.940Z,94611.16
2022-11-15T17:21:18.139Z,94622.47
2022-11-15T17:23:46.143Z,94617.69
2022-11-15T17:26:29.501Z,94623.03
2022-11-15T17:28:59.411Z,94618.47
2022-11-15T17:31:26.584Z,94612.31
2022-11-15T17:33:53.705Z,94606.97
2022-11-15T17:36:21.235Z,94609.34
2022-11-15T17:38:56.568Z,94601.03
2022-11-15T17:41:26.627Z,94606.91
2022-11-15T17:43:53.704Z,94606.97
2022-11-15T17:46:21.693Z,94621.53
2022-11-15T17:48:49.454Z,94603.63
2022-11-15T17:51:18.160Z,94606.31
2022-11-15T17:53:46.994Z,94606.59
2022-11-15T17:56:16.645Z,94604.44
2022-11-15T17:58:52.827Z,94600.22
2022-11-15T18:01:23.287Z,94604.00
2022-11-15T18:03:50.768Z,94601.91
2022-11-15T18:06:19.376Z,94594.44
2022-11-15T18:08:48.155Z,94590.75
2022-11-15T18:11:23.316Z,94597.25
2022-11-15T18:13:57.177Z,94588.94
2022-11-15T18:16:26.571Z,94586.03
2022-11-15T18:18:55.278Z,94580.22
2022-11-15T18:21:24.500Z,94574.41
2022-11-15T18:23:57.002Z,94582.47
2022-11-15T18:26:27.890Z,94583.53
2022-11-15T18:28:57.568Z,94582.47
2022-11-15T18:31:29.463Z,94579.28
2022-11-15T18:33:59.795Z,94585.19
2022-11-15T18:36:30.696Z,94581.44
2022-11-15T18:39:00.794Z,94583.84
2022-11-15T18:41:31.112Z,94573.63
2022-11-15T18:44:00.075Z,94571.75
2022-11-15T18:46:31.074Z,94575.28
2022-11-15T18:49:01.068Z,94576.19
2022-11-15T18:51:30.982Z,94567.38
2022-11-15T18:54:00.673Z,94567.72
2022-11-15T18:56:29.669Z,94572.56
2022-11-15T18:58:59.380Z,94567.47
2022-11-15T19:01:34.077Z,94560.53
2022-11-15T19:04:06.010Z,94556.78
2022-11-15T19:06:33.447Z,94558.16
2022-11-15T19:09:00.815Z,94561.91
2022-11-15T19:11:32.824Z,94560.81
2022-11-15T19:14:03.338Z,94555.97
2022-11-15T19:16:33.542Z,94561.34
2022-11-15T19:19:03.645Z,94560.31
2022-11-15T19:21:33.909Z,94562.47
2022-11-15T19:24:01.788Z,94565.16
2022-11-15T19:26:29.763Z,94549.91
2022-11-15T19:29:01.830Z,94548.53
2022-11-15T19:31:31.758Z,94538.13
2022-11-15T19:34:00.605Z,94536.25
2022-11-15T19:36:32.592Z,94545.88
2022-11-15T19:39:05.289Z,94544.28
2022-11-15T19:41:32.454Z,94541.88
2022-11-15T19:43:59.621Z,94550.19
2022-11-15T19:46:27.107Z,94561.16
2022-11-15T19:48:54.712Z,94557.41
2022-11-15T19:51:27.077Z,94564.34
2022-11-15T19:53:56.728Z,94562.84
2022-11-15T19:56:24.149Z,94568.38
2022-11-15T19:58:53.059Z,94567.19
2022-11-15T20:01:29.018Z,94569.66
2022-11-15T20:03:59.074Z,94572.09
2022-11-15T20:06:34.509Z,94578.31
2022-11-15T20:09:01.591Z,94583.72
2022-11-15T20:11:28.720Z,94575.66
2022-11-15T20:14:00.797Z,94574.16
2022-11-15T20:16:28.148Z,94568.53
2022-11-15T20:18:55.129Z,94582.72
2022-11-15T20:21:22.294Z,94578.22
2022-11-15T20:23:51.175Z,94568.88
2022-11-15T20:26:20.090Z,94554.69
2022-11-15T20:28:48.375Z,94560.56
2022-11-15T20:31:16.609Z,94560.28
2022-11-15T20:33:43.819Z,94560.25
2022-11-15T20:36:13.540Z,94555.72
2022-11-15T20:38:40.908Z,94549.03
2022-11-15T20:41:08.233Z,94547.91
2022-11-15T20:43:35.367Z,94542.25
2022-11-15T20:46:02.270Z,94543.56
2022-11-15T20:48:29.420Z,94535.75
2022-11-15T20:51:25.973Z,94539.16
2022-11-15T20:53:53.071Z,94539.63
2022-11-15T20:56:22.003Z,94523.56
2022-11-15T20:58:50.796Z,94517.34
2022-11-15T21:01:23.804Z,94515.41
2022-11-15T21:03:57.646Z,94513.50
2022-11-15T21:06:26.845Z,94506.25
2022-11-15T21:09:13.285Z,94499.56
2022-11-15T21:11:59.773Z,94508.91
2022-11-15T21:14:27.020Z,94506.75
2022-11-15T21:16:54.081Z,94501.91
2022-11-15T21:19:27.287Z,94494.91
2022-11-15T21:21:58.531Z,94500.00
2022-11-15T21:24:25.620Z,94500.72
2022-11-15T21:26:53.373Z,94491.38
2022-11-15T21:29:20.591Z,94482.47
2022-11-15T21:31:48.977Z,94480.31
2022-11-15T21:34:17.487Z,94493.97
2022-11-15T21:36:44.503Z,94483.28
2022-11-15T21:39:11.861Z,94480.31
2022-11-15T21:41:38.995Z,94487.25
2022-11-15T21:44:06.083Z,94485.16
2022-11-15T21:46:33.593Z,94472.91
2022-11-15T21:49:00.700Z,94478.31
2022-11-15T21:51:27.898Z,94473.00
2022-11-15T21:53:56.379Z,94472.50
2022-11-15T21:56:24.170Z,94473.06
2022-11-15T21:58:51.335Z,94478.69
2022-11-15T22:01:37.468Z,94473.56
2022-11-15T22:04:06.600Z,94472.56
2022-11-15T22:06:34.594Z,94468.63
2022-11-15T22:09:02.315Z,94470.81
2022-11-15T22:11:29.872Z,94459.31
2022-11-15T22:13:57.073Z,94457.19
2022-11-15T22:16:24.372Z,94455.31
2022-11-15T22:18:51.512Z,94454.53
2022-11-15T22:21:19.285Z,94454.53
2022-11-15T22:23:46.604Z,94447.03
2022-11-15T22:26:19.396Z,94430.47
2022-11-15T22:28:49.186Z,94432.09
2022-11-15T22:31:16.235Z,94424.34
2022-11-15T22:33:43.313Z,94429.69
2022-11-15T22:36:12.067Z,94428.34
2022-11-15T22:38:39.526Z,94421.41
2022-11-15T22:41:06.870Z,94423.81
2022-11-15T22:43:34.472Z,94418.75
2022-11-15T22:46:02.877Z,94420.88
2022-11-15T22:48:35.745Z,94418.19
2022-11-15T22:51:04.075Z,94418.19
2022-11-15T22:53:31.336Z,94422.47
2022-11-15T22:56:01.006Z,94419.00
2022-11-15T22:58:30.425Z,94409.16
2022-11-15T23:01:02.695Z,94416.38
2022-11-15T23:03:31.522Z,94413.41
2022-11-15T23:06:06.472Z,94416.38
2022-11-15T23:08:33.859Z,94412.63
2022-11-15T23:11:20.812Z,94396.56
2022-11-15T23:13:51.757Z,94402.16
2022-11-15T23:16:23.662Z,94401.13
2022-11-15T23:18:56.576Z,94399.03
2022-11-15T23:21:53.920Z,94395.84
2022-11-15T23:24:21.683Z,94394.31
2022-11-15T23:26:51.349Z,94387.91
2022-11-15T23:29:20.625Z,94384.72
2022-11-15T23:32:06.294Z,94404.50
2022-11-15T23:34:36.449Z,94383.41
2022-11-15T23:37:05.173Z,94391.41
2022-11-15T23:39:32.629Z,94387.16
2022-11-15T23:42:02.104Z,94376.69
2022-11-15T23:44:33.157Z,94375.63
2022-11-15T23:47:00.174Z,94369.47
2022-11-15T23:49:27.412Z,94364.91
2022-11-15T23:51:54.527Z,94364.47
2022-11-15T23:54:21.599Z,94372.84
2022-11-15T23:56:48.637Z,94359.53
2022-11-15T23:59:15.855Z,94359.53
